sensor_id;sensor_type;location;lat;lon;timestamp;P1;durP1;ratioP1;P2;durP2;ratioP2
22070;SDS011;11200;51.488;6.668;2024-01-30T00:01:22;9.27;;;6.93;;
22070;SDS011;11200;51.488;6.668;2024-01-30T00:03:48;8.80;;;7.30;;
22070;SDS011;11200;51.488;6.668;2024-01-30T00:06:17;8.07;;;7.18;;
22070;SDS011;11200;51.488;6.668;2024-01-30T00:08:44;8.63;;;7.40;;
22070;SDS011;11200;51.488;6.668;2024-01-30T00:11:13;9.57;;;7.10;;
22070;SDS011;11200;51.488;6.668;2024-01-30T00:13:39;9.02;;;7.35;;
22070;SDS011;11200;51.488;6.668;2024-01-30T00:16:05;9.38;;;7.28;;
22070;SDS011;11200;51.488;6.668;2024-01-30T00:18:31;8.98;;;7.22;;
22070;SDS011;11200;51.488;6.668;2024-01-30T00:20:57;9.15;;;7.35;;
22070;SDS011;11200;51.488;6.668;2024-01-30T00:23:23;9.93;;;7.18;;
22070;SDS011;11200;51.488;6.668;2024-01-30T00:25:50;7.63;;;6.70;;
22070;SDS011;11200;51.488;6.668;2024-01-30T00:28:16;8.45;;;7.32;;
22070;SDS011;11200;51.488;6.668;2024-01-30T00:30:42;8.77;;;7.40;;
22070;SDS011;11200;51.488;6.668;2024-01-30T00:33:08;8.23;;;7.18;;
22070;SDS011;11200;51.488;6.668;2024-01-30T00:35:34;8.48;;;7.25;;
22070;SDS011;11200;51.488;6.668;2024-01-30T00:38:00;8.65;;;7.30;;
22070;SDS011;11200;51.488;6.668;2024-01-30T00:40:26;10.80;;;7.30;;
22070;SDS011;11200;51.488;6.668;2024-01-30T00:42:52;10.45;;;7.25;;
22070;SDS011;11200;51.488;6.668;2024-01-30T00:45:18;8.90;;;6.93;;
22070;SDS011;11200;51.488;6.668;2024-01-30T00:47:44;7.43;;;6.70;;
22070;SDS011;11200;51.488;6.668;2024-01-30T00:50:10;8.10;;;6.60;;
22070;SDS011;11200;51.488;6.668;2024-01-30T00:52:36;8.80;;;6.93;;
22070;SDS011;11200;51.488;6.668;2024-01-30T00:55:04;9.88;;;7.05;;
22070;SDS011;11200;51.488;6.668;2024-01-30T00:57:30;9.20;;;6.95;;
22070;SDS011;11200;51.488;6.668;2024-01-30T00:59:56;7.60;;;6.80;;
22070;SDS011;11200;51.488;6.668;2024-01-30T01:02:22;8.52;;;6.82;;
22070;SDS011;11200;51.488;6.668;2024-01-30T01:04:48;9.45;;;7.28;;
22070;SDS011;11200;51.488;6.668;2024-01-30T01:07:15;8.23;;;6.53;;
22070;SDS011;11200;51.488;6.668;2024-01-30T01:09:41;8.48;;;7.28;;
22070;SDS011;11200;51.488;6.668;2024-01-30T01:12:06;8.20;;;7.05;;
22070;SDS011;11200;51.488;6.668;2024-01-30T01:14:32;9.63;;;7.10;;
22070;SDS011;11200;51.488;6.668;2024-01-30T01:16:58;8.55;;;6.97;;
22070;SDS011;11200;51.488;6.668;2024-01-30T01:19:24;9.43;;;7.18;;
22070;SDS011;11200;51.488;6.668;2024-01-30T01:21:50;9.98;;;7.50;;
22070;SDS011;11200;51.488;6.668;2024-01-30T01:24:17;8.75;;;7.05;;
22070;SDS011;11200;51.488;6.668;2024-01-30T01:26:43;9.32;;;7.65;;
22070;SDS011;11200;51.488;6.668;2024-01-30T01:29:09;8.98;;;7.45;;
22070;SDS011;11200;51.488;6.668;2024-01-30T01:31:37;12.30;;;8.27;;
22070;SDS011;11200;51.488;6.668;2024-01-30T01:34:11;9.90;;;7.57;;
22070;SDS011;11200;51.488;6.668;2024-01-30T01:36:40;9.30;;;7.20;;
22070;SDS011;11200;51.488;6.668;2024-01-30T01:39:06;10.18;;;8.02;;
22070;SDS011;11200;51.488;6.668;2024-01-30T01:41:32;10.75;;;8.38;;
22070;SDS011;11200;51.488;6.668;2024-01-30T01:43:59;11.02;;;7.75;;
22070;SDS011;11200;51.488;6.668;2024-01-30T01:46:29;10.43;;;7.70;;
22070;SDS011;11200;51.488;6.668;2024-01-30T01:48:55;10.93;;;7.90;;
22070;SDS011;11200;51.488;6.668;2024-01-30T01:51:22;11.60;;;8.45;;
22070;SDS011;11200;51.488;6.668;2024-01-30T01:53:49;10.15;;;7.72;;
22070;SDS011;11200;51.488;6.668;2024-01-30T01:56:16;12.18;;;8.40;;
22070;SDS011;11200;51.488;6.668;2024-01-30T01:58:42;11.35;;;8.23;;
22070;SDS011;11200;51.488;6.668;2024-01-30T02:01:09;13.43;;;8.88;;
22070;SDS011;11200;51.488;6.668;2024-01-30T02:03:36;10.70;;;8.63;;
22070;SDS011;11200;51.488;6.668;2024-01-30T02:06:03;9.85;;;7.57;;
22070;SDS011;11200;51.488;6.668;2024-01-30T02:08:29;12.40;;;8.68;;
22070;SDS011;11200;51.488;6.668;2024-01-30T02:10:55;10.15;;;8.57;;
22070;SDS011;11200;51.488;6.668;2024-01-30T02:13:21;10.43;;;8.00;;
22070;SDS011;11200;51.488;6.668;2024-01-30T02:15:53;9.88;;;7.78;;
22070;SDS011;11200;51.488;6.668;2024-01-30T02:18:19;9.70;;;8.35;;
22070;SDS011;11200;51.488;6.668;2024-01-30T02:20:48;11.95;;;8.52;;
22070;SDS011;11200;51.488;6.668;2024-01-30T02:23:18;13.23;;;9.15;;
22070;SDS011;11200;51.488;6.668;2024-01-30T02:25:45;13.65;;;8.70;;
22070;SDS011;11200;51.488;6.668;2024-01-30T02:28:11;11.05;;;8.45;;
22070;SDS011;11200;51.488;6.668;2024-01-30T02:30:38;11.40;;;8.75;;
22070;SDS011;11200;51.488;6.668;2024-01-30T02:33:04;9.93;;;8.55;;
22070;SDS011;11200;51.488;6.668;2024-01-30T02:35:30;12.38;;;9.13;;
22070;SDS011;11200;51.488;6.668;2024-01-30T02:37:57;11.68;;;9.23;;
22070;SDS011;11200;51.488;6.668;2024-01-30T02:40:23;13.27;;;9.13;;
22070;SDS011;11200;51.488;6.668;2024-01-30T02:42:49;14.30;;;9.02;;
22070;SDS011;11200;51.488;6.668;2024-01-30T02:45:15;11.85;;;8.85;;
22070;SDS011;11200;51.488;6.668;2024-01-30T02:47:41;15.27;;;9.35;;
22070;SDS011;11200;51.488;6.668;2024-01-30T02:50:07;12.80;;;9.02;;
22070;SDS011;11200;51.488;6.668;2024-01-30T02:52:33;13.02;;;9.68;;
22070;SDS011;11200;51.488;6.668;2024-01-30T02:54:59;11.25;;;9.05;;
22070;SDS011;11200;51.488;6.668;2024-01-30T02:57:25;14.82;;;9.45;;
22070;SDS011;11200;51.488;6.668;2024-01-30T02:59:51;12.63;;;9.02;;
22070;SDS011;11200;51.488;6.668;2024-01-30T03:02:17;11.35;;;9.05;;
22070;SDS011;11200;51.488;6.668;2024-01-30T03:04:43;11.38;;;9.38;;
22070;SDS011;11200;51.488;6.668;2024-01-30T03:07:09;13.13;;;9.65;;
22070;SDS011;11200;51.488;6.668;2024-01-30T03:09:36;11.65;;;9.63;;
22070;SDS011;11200;51.488;6.668;2024-01-30T03:12:03;13.05;;;9.32;;
22070;SDS011;11200;51.488;6.668;2024-01-30T03:14:32;14.73;;;10.25;;
22070;SDS011;11200;51.488;6.668;2024-01-30T03:16:58;11.90;;;9.25;;
22070;SDS011;11200;51.488;6.668;2024-01-30T03:19:24;10.93;;;8.90;;
22070;SDS011;11200;51.488;6.668;2024-01-30T03:21:50;12.95;;;9.55;;
22070;SDS011;11200;51.488;6.668;2024-01-30T03:24:16;13.57;;;10.02;;
22070;SDS011;11200;51.488;6.668;2024-01-30T03:26:43;12.15;;;9.80;;
22070;SDS011;11200;51.488;6.668;2024-01-30T03:29:09;12.75;;;10.13;;
22070;SDS011;11200;51.488;6.668;2024-01-30T03:31:35;11.48;;;8.85;;
22070;SDS011;11200;51.488;6.668;2024-01-30T03:34:01;14.82;;;10.05;;
22070;SDS011;11200;51.488;6.668;2024-01-30T03:36:27;11.82;;;9.35;;
22070;SDS011;11200;51.488;6.668;2024-01-30T03:38:53;14.23;;;9.77;;
22070;SDS011;11200;51.488;6.668;2024-01-30T03:41:19;14.55;;;9.52;;
22070;SDS011;11200;51.488;6.668;2024-01-30T03:43:47;11.23;;;9.45;;
22070;SDS011;11200;51.488;6.668;2024-01-30T03:46:13;11.75;;;10.02;;
22070;SDS011;11200;51.488;6.668;2024-01-30T03:48:39;13.20;;;9.82;;
22070;SDS011;11200;51.488;6.668;2024-01-30T03:51:05;14.38;;;9.32;;
22070;SDS011;11200;51.488;6.668;2024-01-30T03:53:31;13.38;;;8.88;;
22070;SDS011;11200;51.488;6.668;2024-01-30T03:55:57;12.07;;;9.32;;
22070;SDS011;11200;51.488;6.668;2024-01-30T03:58:23;11.90;;;9.05;;
22070;SDS011;11200;51.488;6.668;2024-01-30T04:00:49;11.98;;;9.20;;
22070;SDS011;11200;51.488;6.668;2024-01-30T04:03:15;10.70;;;8.45;;
22070;SDS011;11200;51.488;6.668;2024-01-30T04:05:41;11.23;;;8.65;;
22070;SDS011;11200;51.488;6.668;2024-01-30T04:08:07;10.15;;;8.45;;
22070;SDS011;11200;51.488;6.668;2024-01-30T04:10:33;10.73;;;8.77;;
22070;SDS011;11200;51.488;6.668;2024-01-30T04:12:59;11.20;;;8.77;;
22070;SDS011;11200;51.488;6.668;2024-01-30T04:15:26;11.05;;;8.52;;
22070;SDS011;11200;51.488;6.668;2024-01-30T04:17:52;12.25;;;8.70;;
22070;SDS011;11200;51.488;6.668;2024-01-30T04:20:18;10.95;;;8.32;;
22070;SDS011;11200;51.488;6.668;2024-01-30T04:22:44;10.80;;;8.68;;
22070;SDS011;11200;51.488;6.668;2024-01-30T04:25:11;12.27;;;9.18;;
22070;SDS011;11200;51.488;6.668;2024-01-30T04:27:37;10.82;;;8.55;;
22070;SDS011;11200;51.488;6.668;2024-01-30T04:30:03;11.63;;;8.40;;
22070;SDS011;11200;51.488;6.668;2024-01-30T04:32:29;11.65;;;9.38;;
22070;SDS011;11200;51.488;6.668;2024-01-30T04:34:55;10.30;;;8.25;;
22070;SDS011;11200;51.488;6.668;2024-01-30T04:37:21;10.43;;;8.20;;
22070;SDS011;11200;51.488;6.668;2024-01-30T04:39:47;9.63;;;8.27;;
22070;SDS011;11200;51.488;6.668;2024-01-30T04:42:13;11.07;;;8.65;;
22070;SDS011;11200;51.488;6.668;2024-01-30T04:44:39;9.98;;;8.05;;
22070;SDS011;11200;51.488;6.668;2024-01-30T04:47:05;9.73;;;8.23;;
22070;SDS011;11200;51.488;6.668;2024-01-30T04:49:33;10.68;;;8.13;;
22070;SDS011;11200;51.488;6.668;2024-01-30T04:51:59;10.18;;;8.20;;
22070;SDS011;11200;51.488;6.668;2024-01-30T04:54:25;11.30;;;8.68;;
22070;SDS011;11200;51.488;6.668;2024-01-30T04:56:52;10.20;;;8.25;;
22070;SDS011;11200;51.488;6.668;2024-01-30T04:59:18;11.13;;;8.48;;
22070;SDS011;11200;51.488;6.668;2024-01-30T05:01:44;10.50;;;8.15;;
22070;SDS011;11200;51.488;6.668;2024-01-30T05:04:10;10.80;;;7.80;;
22070;SDS011;11200;51.488;6.668;2024-01-30T05:06:41;10.20;;;7.78;;
22070;SDS011;11200;51.488;6.668;2024-01-30T05:09:08;10.90;;;8.23;;
22070;SDS011;11200;51.488;6.668;2024-01-30T05:11:42;11.50;;;7.55;;
22070;SDS011;11200;51.488;6.668;2024-01-30T05:14:09;10.93;;;8.32;;
22070;SDS011;11200;51.488;6.668;2024-01-30T05:16:36;9.88;;;7.57;;
22070;SDS011;11200;51.488;6.668;2024-01-30T05:19:03;10.93;;;8.45;;
22070;SDS011;11200;51.488;6.668;2024-01-30T05:21:30;10.38;;;8.20;;
22070;SDS011;11200;51.488;6.668;2024-01-30T05:23:57;11.82;;;8.15;;
22070;SDS011;11200;51.488;6.668;2024-01-30T05:26:23;9.43;;;8.00;;
22070;SDS011;11200;51.488;6.668;2024-01-30T05:28:53;11.75;;;8.35;;
22070;SDS011;11200;51.488;6.668;2024-01-30T05:31:19;11.85;;;8.82;;
22070;SDS011;11200;51.488;6.668;2024-01-30T05:33:46;9.75;;;8.30;;
22070;SDS011;11200;51.488;6.668;2024-01-30T05:36:12;9.95;;;7.63;;
22070;SDS011;11200;51.488;6.668;2024-01-30T05:38:39;11.15;;;7.97;;
22070;SDS011;11200;51.488;6.668;2024-01-30T05:41:06;10.45;;;7.90;;
22070;SDS011;11200;51.488;6.668;2024-01-30T05:43:32;10.10;;;8.10;;
22070;SDS011;11200;51.488;6.668;2024-01-30T05:45:58;10.13;;;8.15;;
22070;SDS011;11200;51.488;6.668;2024-01-30T05:48:24;9.95;;;8.52;;
22070;SDS011;11200;51.488;6.668;2024-01-30T05:50:52;9.68;;;7.78;;
22070;SDS011;11200;51.488;6.668;2024-01-30T05:53:18;11.82;;;7.93;;
22070;SDS011;11200;51.488;6.668;2024-01-30T05:55:44;10.98;;;7.70;;
22070;SDS011;11200;51.488;6.668;2024-01-30T05:58:11;11.48;;;7.88;;
22070;SDS011;11200;51.488;6.668;2024-01-30T06:00:37;10.20;;;7.53;;
22070;SDS011;11200;51.488;6.668;2024-01-30T06:03:03;9.77;;;7.35;;
22070;SDS011;11200;51.488;6.668;2024-01-30T06:05:31;10.68;;;7.43;;
22070;SDS011;11200;51.488;6.668;2024-01-30T06:07:57;9.68;;;7.20;;
22070;SDS011;11200;51.488;6.668;2024-01-30T06:10:23;8.85;;;7.30;;
22070;SDS011;11200;51.488;6.668;2024-01-30T06:12:49;8.43;;;7.22;;
22070;SDS011;11200;51.488;6.668;2024-01-30T06:15:15;10.10;;;7.50;;
22070;SDS011;11200;51.488;6.668;2024-01-30T06:17:44;9.93;;;7.50;;
22070;SDS011;11200;51.488;6.668;2024-01-30T06:20:10;8.63;;;6.95;;
22070;SDS011;11200;51.488;6.668;2024-01-30T06:22:38;10.43;;;7.45;;
22070;SDS011;11200;51.488;6.668;2024-01-30T06:25:04;10.32;;;7.45;;
22070;SDS011;11200;51.488;6.668;2024-01-30T06:27:30;11.30;;;7.70;;
22070;SDS011;11200;51.488;6.668;2024-01-30T06:29:56;12.18;;;8.60;;
22070;SDS011;11200;51.488;6.668;2024-01-30T06:32:22;9.43;;;8.05;;
22070;SDS011;11200;51.488;6.668;2024-01-30T06:34:47;10.02;;;7.82;;
22070;SDS011;11200;51.488;6.668;2024-01-30T06:37:14;10.23;;;8.07;;
22070;SDS011;11200;51.488;6.668;2024-01-30T06:39:43;9.93;;;7.90;;
22070;SDS011;11200;51.488;6.668;2024-01-30T06:42:09;8.90;;;7.97;;
22070;SDS011;11200;51.488;6.668;2024-01-30T06:44:36;10.77;;;8.25;;
22070;SDS011;11200;51.488;6.668;2024-01-30T06:47:02;9.50;;;7.80;;
22070;SDS011;11200;51.488;6.668;2024-01-30T06:49:28;8.90;;;7.50;;
22070;SDS011;11200;51.488;6.668;2024-01-30T06:51:54;11.65;;;7.82;;
22070;SDS011;11200;51.488;6.668;2024-01-30T06:54:19;10.82;;;7.93;;
22070;SDS011;11200;51.488;6.668;2024-01-30T06:56:45;9.40;;;7.68;;
22070;SDS011;11200;51.488;6.668;2024-01-30T06:59:11;11.15;;;8.10;;
22070;SDS011;11200;51.488;6.668;2024-01-30T07:01:37;9.30;;;7.45;;
22070;SDS011;11200;51.488;6.668;2024-01-30T07:04:03;9.23;;;7.72;;
22070;SDS011;11200;51.488;6.668;2024-01-30T07:06:29;9.35;;;7.68;;
22070;SDS011;11200;51.488;6.668;2024-01-30T07:08:58;10.00;;;8.07;;
22070;SDS011;11200;51.488;6.668;2024-01-30T07:11:24;9.88;;;7.75;;
22070;SDS011;11200;51.488;6.668;2024-01-30T07:13:57;10.75;;;8.02;;
22070;SDS011;11200;51.488;6.668;2024-01-30T07:16:23;10.55;;;8.07;;
22070;SDS011;11200;51.488;6.668;2024-01-30T07:18:49;10.05;;;8.05;;
22070;SDS011;11200;51.488;6.668;2024-01-30T07:21:15;9.32;;;7.60;;
22070;SDS011;11200;51.488;6.668;2024-01-30T07:23:42;9.82;;;7.88;;
22070;SDS011;11200;51.488;6.668;2024-01-30T07:26:08;9.52;;;7.97;;
22070;SDS011;11200;51.488;6.668;2024-01-30T07:28:34;10.48;;;7.72;;
22070;SDS011;11200;51.488;6.668;2024-01-30T07:31:01;9.93;;;7.88;;
22070;SDS011;11200;51.488;6.668;2024-01-30T07:33:32;10.00;;;7.78;;
22070;SDS011;11200;51.488;6.668;2024-01-30T07:36:01;8.32;;;7.32;;
22070;SDS011;11200;51.488;6.668;2024-01-30T07:38:27;9.73;;;7.70;;
22070;SDS011;11200;51.488;6.668;2024-01-30T07:40:53;10.75;;;7.90;;
22070;SDS011;11200;51.488;6.668;2024-01-30T07:43:19;10.65;;;7.88;;
22070;SDS011;11200;51.488;6.668;2024-01-30T07:45:45;10.10;;;7.93;;
22070;SDS011;11200;51.488;6.668;2024-01-30T07:48:11;9.30;;;7.75;;
22070;SDS011;11200;51.488;6.668;2024-01-30T07:50:37;9.57;;;7.50;;
22070;SDS011;11200;51.488;6.668;2024-01-30T07:53:03;10.15;;;7.70;;
22070;SDS011;11200;51.488;6.668;2024-01-30T07:55:29;10.07;;;7.63;;
22070;SDS011;11200;51.488;6.668;2024-01-30T07:57:56;10.55;;;7.80;;
22070;SDS011;11200;51.488;6.668;2024-01-30T08:00:23;11.98;;;8.00;;
22070;SDS011;11200;51.488;6.668;2024-01-30T08:02:50;11.95;;;8.10;;
22070;SDS011;11200;51.488;6.668;2024-01-30T08:05:19;9.52;;;7.78;;
22070;SDS011;11200;51.488;6.668;2024-01-30T08:07:47;9.27;;;7.35;;
22070;SDS011;11200;51.488;6.668;2024-01-30T08:10:13;12.38;;;7.80;;
22070;SDS011;11200;51.488;6.668;2024-01-30T08:12:40;11.75;;;7.68;;
22070;SDS011;11200;51.488;6.668;2024-01-30T08:15:06;9.50;;;7.82;;
22070;SDS011;11200;51.488;6.668;2024-01-30T08:17:32;10.63;;;8.27;;
22070;SDS011;11200;51.488;6.668;2024-01-30T08:19:58;11.25;;;7.82;;
22070;SDS011;11200;51.488;6.668;2024-01-30T08:22:24;9.38;;;7.43;;
22070;SDS011;11200;51.488;6.668;2024-01-30T08:24:50;11.40;;;7.88;;
22070;SDS011;11200;51.488;6.668;2024-01-30T08:27:16;10.32;;;7.60;;
22070;SDS011;11200;51.488;6.668;2024-01-30T08:29:42;10.13;;;7.50;;
22070;SDS011;11200;51.488;6.668;2024-01-30T08:32:08;10.50;;;7.70;;
22070;SDS011;11200;51.488;6.668;2024-01-30T08:34:34;11.18;;;8.30;;
22070;SDS011;11200;51.488;6.668;2024-01-30T08:37:00;10.20;;;7.65;;
22070;SDS011;11200;51.488;6.668;2024-01-30T08:39:26;8.88;;;6.88;;
22070;SDS011;11200;51.488;6.668;2024-01-30T08:41:52;10.80;;;7.88;;
22070;SDS011;11200;51.488;6.668;2024-01-30T08:44:19;10.75;;;8.00;;
22070;SDS011;11200;51.488;6.668;2024-01-30T08:46:45;9.52;;;7.68;;
22070;SDS011;11200;51.488;6.668;2024-01-30T08:49:11;11.43;;;8.00;;
22070;SDS011;11200;51.488;6.668;2024-01-30T08:51:40;9.77;;;7.80;;
22070;SDS011;11200;51.488;6.668;2024-01-30T08:54:06;9.75;;;7.55;;
22070;SDS011;11200;51.488;6.668;2024-01-30T08:56:32;9.43;;;7.40;;
22070;SDS011;11200;51.488;6.668;2024-01-30T08:58:58;11.80;;;7.85;;
22070;SDS011;11200;51.488;6.668;2024-01-30T09:01:27;8.75;;;7.47;;
22070;SDS011;11200;51.488;6.668;2024-01-30T09:03:53;9.70;;;7.57;;
22070;SDS011;11200;51.488;6.668;2024-01-30T09:06:19;9.48;;;7.20;;
22070;SDS011;11200;51.488;6.668;2024-01-30T09:08:45;9.70;;;7.50;;
22070;SDS011;11200;51.488;6.668;2024-01-30T09:11:11;10.65;;;7.53;;
22070;SDS011;11200;51.488;6.668;2024-01-30T09:13:37;8.75;;;7.57;;
22070;SDS011;11200;51.488;6.668;2024-01-30T09:16:03;10.77;;;8.15;;
22070;SDS011;11200;51.488;6.668;2024-01-30T09:18:29;10.10;;;7.82;;
22070;SDS011;11200;51.488;6.668;2024-01-30T09:20:55;9.63;;;7.70;;
22070;SDS011;11200;51.488;6.668;2024-01-30T09:23:21;9.65;;;7.60;;
22070;SDS011;11200;51.488;6.668;2024-01-30T09:25:47;9.27;;;7.43;;
22070;SDS011;11200;51.488;6.668;2024-01-30T09:28:14;9.15;;;7.82;;
22070;SDS011;11200;51.488;6.668;2024-01-30T09:30:40;10.98;;;7.97;;
22070;SDS011;11200;51.488;6.668;2024-01-30T09:33:06;10.85;;;8.15;;
22070;SDS011;11200;51.488;6.668;2024-01-30T09:35:32;9.38;;;7.88;;
22070;SDS011;11200;51.488;6.668;2024-01-30T09:37:58;9.98;;;8.20;;
22070;SDS011;11200;51.488;6.668;2024-01-30T09:40:24;10.93;;;8.73;;
22070;SDS011;11200;51.488;6.668;2024-01-30T09:42:51;11.32;;;8.63;;
22070;SDS011;11200;51.488;6.668;2024-01-30T09:45:18;13.45;;;8.77;;
22070;SDS011;11200;51.488;6.668;2024-01-30T09:47:45;10.38;;;8.40;;
22070;SDS011;11200;51.488;6.668;2024-01-30T09:50:12;12.13;;;8.20;;
22070;SDS011;11200;51.488;6.668;2024-01-30T09:52:38;11.07;;;8.45;;
22070;SDS011;11200;51.488;6.668;2024-01-30T09:55:05;12.27;;;8.38;;
22070;SDS011;11200;51.488;6.668;2024-01-30T09:57:32;11.50;;;8.60;;
22070;SDS011;11200;51.488;6.668;2024-01-30T09:59:58;10.55;;;8.65;;
22070;SDS011;11200;51.488;6.668;2024-01-30T10:02:24;13.75;;;9.45;;
22070;SDS011;11200;51.488;6.668;2024-01-30T10:04:50;12.63;;;8.68;;
22070;SDS011;11200;51.488;6.668;2024-01-30T10:07:17;10.75;;;9.02;;
22070;SDS011;11200;51.488;6.668;2024-01-30T10:09:43;10.70;;;9.20;;
22070;SDS011;11200;51.488;6.668;2024-01-30T10:12:09;10.55;;;8.63;;
22070;SDS011;11200;51.488;6.668;2024-01-30T10:14:41;10.55;;;9.35;;
22070;SDS011;11200;51.488;6.668;2024-01-30T10:17:08;11.32;;;9.15;;
22070;SDS011;11200;51.488;6.668;2024-01-30T10:19:34;12.98;;;9.40;;
22070;SDS011;11200;51.488;6.668;2024-01-30T10:22:00;12.27;;;10.25;;
22070;SDS011;11200;51.488;6.668;2024-01-30T10:24:26;12.18;;;9.43;;
22070;SDS011;11200;51.488;6.668;2024-01-30T10:26:54;12.35;;;9.20;;
22070;SDS011;11200;51.488;6.668;2024-01-30T10:29:20;11.18;;;9.20;;
22070;SDS011;11200;51.488;6.668;2024-01-30T10:31:46;12.50;;;9.88;;
22070;SDS011;11200;51.488;6.668;2024-01-30T10:34:22;12.07;;;9.40;;
22070;SDS011;11200;51.488;6.668;2024-01-30T10:36:49;13.13;;;9.68;;
22070;SDS011;11200;51.488;6.668;2024-01-30T10:39:16;11.82;;;9.45;;
22070;SDS011;11200;51.488;6.668;2024-01-30T10:41:43;13.75;;;10.15;;
22070;SDS011;11200;51.488;6.668;2024-01-30T10:44:10;12.50;;;9.80;;
22070;SDS011;11200;51.488;6.668;2024-01-30T10:46:40;12.50;;;9.60;;
22070;SDS011;11200;51.488;6.668;2024-01-30T10:49:07;14.02;;;9.40;;
22070;SDS011;11200;51.488;6.668;2024-01-30T10:51:34;11.00;;;9.13;;
22070;SDS011;11200;51.488;6.668;2024-01-30T10:54:02;11.98;;;9.07;;
22070;SDS011;11200;51.488;6.668;2024-01-30T10:56:29;11.25;;;8.75;;
22070;SDS011;11200;51.488;6.668;2024-01-30T10:58:55;11.30;;;8.80;;
22070;SDS011;11200;51.488;6.668;2024-01-30T11:01:21;12.65;;;8.80;;
22070;SDS011;11200;51.488;6.668;2024-01-30T11:03:49;11.18;;;8.82;;
22070;SDS011;11200;51.488;6.668;2024-01-30T11:06:15;12.45;;;8.90;;
22070;SDS011;11200;51.488;6.668;2024-01-30T11:08:43;10.25;;;8.50;;
22070;SDS011;11200;51.488;6.668;2024-01-30T11:11:10;10.95;;;8.43;;
22070;SDS011;11200;51.488;6.668;2024-01-30T11:13:36;11.18;;;8.13;;
22070;SDS011;11200;51.488;6.668;2024-01-30T11:16:03;9.95;;;8.13;;
22070;SDS011;11200;51.488;6.668;2024-01-30T11:18:30;12.55;;;8.40;;
22070;SDS011;11200;51.488;6.668;2024-01-30T11:20:56;10.73;;;8.00;;
22070;SDS011;11200;51.488;6.668;2024-01-30T11:23:23;9.40;;;7.82;;
22070;SDS011;11200;51.488;6.668;2024-01-30T11:25:49;8.73;;;7.38;;
22070;SDS011;11200;51.488;6.668;2024-01-30T11:28:17;8.18;;;7.22;;
22070;SDS011;11200;51.488;6.668;2024-01-30T11:30:43;10.10;;;7.80;;
22070;SDS011;11200;51.488;6.668;2024-01-30T11:33:12;10.02;;;7.40;;
22070;SDS011;11200;51.488;6.668;2024-01-30T11:35:39;9.10;;;7.18;;
22070;SDS011;11200;51.488;6.668;2024-01-30T11:38:06;10.10;;;7.50;;
22070;SDS011;11200;51.488;6.668;2024-01-30T11:40:33;7.80;;;6.70;;
22070;SDS011;11200;51.488;6.668;2024-01-30T11:43:00;11.05;;;7.38;;
22070;SDS011;11200;51.488;6.668;2024-01-30T11:45:27;9.93;;;7.30;;
22070;SDS011;11200;51.488;6.668;2024-01-30T11:47:53;9.10;;;7.22;;
22070;SDS011;11200;51.488;6.668;2024-01-30T11:50:19;9.13;;;7.38;;
22070;SDS011;11200;51.488;6.668;2024-01-30T11:52:45;9.07;;;7.07;;
22070;SDS011;11200;51.488;6.668;2024-01-30T11:55:12;8.00;;;7.03;;
22070;SDS011;11200;51.488;6.668;2024-01-30T11:57:38;9.85;;;6.90;;
22070;SDS011;11200;51.488;6.668;2024-01-30T12:00:05;8.55;;;6.70;;
22070;SDS011;11200;51.488;6.668;2024-01-30T12:02:35;8.35;;;7.43;;
22070;SDS011;11200;51.488;6.668;2024-01-30T12:05:04;8.52;;;6.65;;
22070;SDS011;11200;51.488;6.668;2024-01-30T12:07:30;8.07;;;6.60;;
22070;SDS011;11200;51.488;6.668;2024-01-30T12:09:57;8.38;;;6.55;;
22070;SDS011;11200;51.488;6.668;2024-01-30T12:12:23;9.63;;;7.18;;
22070;SDS011;11200;51.488;6.668;2024-01-30T12:14:50;9.38;;;6.88;;
22070;SDS011;11200;51.488;6.668;2024-01-30T12:17:28;8.38;;;6.75;;
22070;SDS011;11200;51.488;6.668;2024-01-30T12:20:04;8.85;;;7.15;;
22070;SDS011;11200;51.488;6.668;2024-01-30T12:22:31;9.68;;;6.50;;
22070;SDS011;11200;51.488;6.668;2024-01-30T12:24:57;8.07;;;6.45;;
22070;SDS011;11200;51.488;6.668;2024-01-30T12:27:23;8.52;;;6.88;;
22070;SDS011;11200;51.488;6.668;2024-01-30T12:29:55;8.13;;;7.13;;
22070;SDS011;11200;51.488;6.668;2024-01-30T12:32:22;8.15;;;6.38;;
22070;SDS011;11200;51.488;6.668;2024-01-30T12:34:48;8.60;;;6.55;;
22070;SDS011;11200;51.488;6.668;2024-01-30T12:37:14;8.95;;;6.63;;
22070;SDS011;11200;51.488;6.668;2024-01-30T12:39:46;9.77;;;6.50;;
22070;SDS011;11200;51.488;6.668;2024-01-30T12:42:13;8.93;;;6.57;;
22070;SDS011;11200;51.488;6.668;2024-01-30T12:44:39;6.88;;;6.13;;
22070;SDS011;11200;51.488;6.668;2024-01-30T12:47:05;7.15;;;6.10;;
22070;SDS011;11200;51.488;6.668;2024-01-30T12:49:31;9.80;;;6.75;;
22070;SDS011;11200;51.488;6.668;2024-01-30T12:51:58;9.13;;;6.60;;
22070;SDS011;11200;51.488;6.668;2024-01-30T12:54:24;8.50;;;6.47;;
22070;SDS011;11200;51.488;6.668;2024-01-30T12:56:50;8.35;;;6.30;;
22070;SDS011;11200;51.488;6.668;2024-01-30T12:59:16;7.50;;;6.45;;
22070;SDS011;11200;51.488;6.668;2024-01-30T13:01:42;8.57;;;6.65;;
22070;SDS011;11200;51.488;6.668;2024-01-30T13:04:08;7.45;;;6.10;;
22070;SDS011;11200;51.488;6.668;2024-01-30T13:06:34;9.02;;;6.60;;
22070;SDS011;11200;51.488;6.668;2024-01-30T13:09:00;8.98;;;6.18;;
22070;SDS011;11200;51.488;6.668;2024-01-30T13:11:26;9.10;;;6.88;;
22070;SDS011;11200;51.488;6.668;2024-01-30T13:13:52;7.07;;;6.05;;
22070;SDS011;11200;51.488;6.668;2024-01-30T13:16:18;7.70;;;6.05;;
22070;SDS011;11200;51.488;6.668;2024-01-30T13:18:44;7.75;;;6.13;;
22070;SDS011;11200;51.488;6.668;2024-01-30T13:21:10;8.60;;;6.70;;
22070;SDS011;11200;51.488;6.668;2024-01-30T13:23:36;9.35;;;6.13;;
22070;SDS011;11200;51.488;6.668;2024-01-30T13:26:02;7.43;;;5.93;;
22070;SDS011;11200;51.488;6.668;2024-01-30T13:28:27;7.30;;;6.05;;
22070;SDS011;11200;51.488;6.668;2024-01-30T13:30:53;8.73;;;5.68;;
22070;SDS011;11200;51.488;6.668;2024-01-30T13:33:19;8.70;;;6.20;;
22070;SDS011;11200;51.488;6.668;2024-01-30T13:35:45;9.43;;;6.40;;
22070;SDS011;11200;51.488;6.668;2024-01-30T13:38:12;8.73;;;5.78;;
22070;SDS011;11200;51.488;6.668;2024-01-30T13:40:38;7.70;;;5.97;;
22070;SDS011;11200;51.488;6.668;2024-01-30T13:43:04;8.10;;;5.72;;
22070;SDS011;11200;51.488;6.668;2024-01-30T13:45:30;7.32;;;5.80;;
22070;SDS011;11200;51.488;6.668;2024-01-30T13:47:56;12.18;;;6.72;;
22070;SDS011;11200;51.488;6.668;2024-01-30T13:50:24;8.52;;;6.40;;
22070;SDS011;11200;51.488;6.668;2024-01-30T13:52:50;7.82;;;6.10;;
22070;SDS011;11200;51.488;6.668;2024-01-30T13:55:16;8.85;;;6.20;;
22070;SDS011;11200;51.488;6.668;2024-01-30T13:57:41;6.93;;;5.70;;
22070;SDS011;11200;51.488;6.668;2024-01-30T14:00:08;9.75;;;6.32;;
22070;SDS011;11200;51.488;6.668;2024-01-30T14:02:34;7.75;;;5.97;;
22070;SDS011;11200;51.488;6.668;2024-01-30T14:05:09;8.93;;;6.05;;
22070;SDS011;11200;51.488;6.668;2024-01-30T14:07:53;7.50;;;6.10;;
22070;SDS011;11200;51.488;6.668;2024-01-30T14:10:19;7.30;;;5.60;;
22070;SDS011;11200;51.488;6.668;2024-01-30T14:12:48;6.95;;;5.90;;
22070;SDS011;11200;51.488;6.668;2024-01-30T14:15:14;8.25;;;6.05;;
22070;SDS011;11200;51.488;6.668;2024-01-30T14:17:43;7.85;;;5.68;;
22070;SDS011;11200;51.488;6.668;2024-01-30T14:20:12;7.85;;;5.45;;
22070;SDS011;11200;51.488;6.668;2024-01-30T14:22:41;7.95;;;5.72;;
22070;SDS011;11200;51.488;6.668;2024-01-30T14:25:18;6.93;;;5.50;;
22070;SDS011;11200;51.488;6.668;2024-01-30T14:27:47;6.95;;;5.55;;
22070;SDS011;11200;51.488;6.668;2024-01-30T14:30:33;7.38;;;5.40;;
22070;SDS011;11200;51.488;6.668;2024-01-30T14:32:59;8.73;;;5.78;;
22070;SDS011;11200;51.488;6.668;2024-01-30T14:35:25;6.82;;;5.78;;
22070;SDS011;11200;51.488;6.668;2024-01-30T14:37:51;6.72;;;5.20;;